KHLG

Wheeling Ohio Co Airport

Wheeling, West Virginia, USA
KHLG 241843Z 2419/2518 13012KT P6SM -SHRA OVC014 TEMPO 2419/2422 2SM SHRA OVC010 FM250000 15008KT 5SM -SHRA OVC020 WS020/15045KT FM250900 15008KT 3SM -SHRA OVC015 WS020/18040KT FM251200 18008KT P6SM VCSH OVC010
Issued Valid From Valid To
Sep-24 @ 18:43 UTC
(an hour ago)
Sep-24 @ 19:00 UTC
(an hour ago)
Sep-25 @ 18:00 UTC
(in 22 hours)
Sep-24 @ 19:00 to Sep-25 @ 00:00
KHLG 241843Z 2419/2518 13012KT P6SM -SHRA OVC014
Wind Visibility Clouds Conditions
130° at 12 knots Greater than 6 miles
  • Overcast at 1,400' AGL
  • Light Rain
Temporary Sep-24 @ 19:00 to Sep-24 @ 22:00
TEMPO 2419/2422 2SM SHRA OVC010
Visibility Clouds Conditions
2 miles
  • Overcast at 1,000' AGL
  • Rain
From Sep-25 @ 00:00 to Sep-25 @ 09:00
FM250000 15008KT 5SM -SHRA OVC020 WS020/15045KT
Wind Visibility Clouds Conditions
150° at 8 knots
 Wind shear 2,000' AGL from 150° at 45 knots
5 miles
  • Overcast at 2,000' AGL
  • Light Rain
From Sep-25 @ 09:00 to Sep-25 @ 12:00
FM250900 15008KT 3SM -SHRA OVC015 WS020/18040KT
Wind Visibility Clouds Conditions
150° at 8 knots
 Wind shear 2,000' AGL from 180° at 40 knots
3 miles
  • Overcast at 1,500' AGL
  • Light Rain
From Sep-25 @ 12:00 to Sep-25 @ 18:00
FM251200 18008KT P6SM VCSH OVC010
Wind Visibility Clouds
180° at 8 knots Greater than 6 miles
  • Overcast at 1,000' AGL
KHLG 241843Z 2419/2518 13012KT P6SM -SHRA OVC014 TEMPO 2419/2422 2SM SHRA OVC010 FM250000 15008KT 5SM -SHRA OVC020 WS020/15045KT FM250900 15008KT 3SM -SHRA OVC015 WS020/18040KT FM251200 18008KT P6SM VCSH OVC010
Issued Sep-24 @ 18:43 UTC
(an hour ago)
Valid From Sep-24 @ 19:00 UTC
(an hour ago)
Valid To Sep-25 @ 18:00 UTC
(in 22 hours)
Sep-24 @ 19:00 - Sep-25 @ 00:00
Wind Visibility
130° at 12 knots Greater than 6 miles
Clouds
  • Overcast at 1,400' AGL
Conditions
  • Light Rain
Temporary Sep-24 @ 19:00 - Sep-24 @ 22:00
Clouds
  • Overcast at 1,000' AGL
Conditions
  • Rain
From Sep-25 @ 00:00 - Sep-25 @ 09:00
Wind Visibility
150° at 8 knots 5 miles
Clouds
  • Overcast at 2,000' AGL
Conditions
  • Light Rain
From Sep-25 @ 09:00 - Sep-25 @ 12:00
Wind Visibility
150° at 8 knots 3 miles
Clouds
  • Overcast at 1,500' AGL
Conditions
  • Light Rain
From Sep-25 @ 12:00 - Sep-25 @ 18:00
Wind Visibility
180° at 8 knots Greater than 6 miles
Clouds
  • Overcast at 1,000' AGL